createdAt,value
2023-05-06T00:01:42.420Z,6.93
2023-05-06T00:04:09.183Z,7.10
2023-05-06T00:06:35.916Z,6.78
2023-05-06T00:09:02.523Z,7.25
2023-05-06T00:11:29.266Z,7.30
2023-05-06T00:13:55.920Z,6.90
2023-05-06T00:16:22.973Z,6.50
2023-05-06T00:18:49.897Z,6.95
2023-05-06T00:21:16.572Z,7.13
2023-05-06T00:23:43.185Z,7.13
2023-05-06T00:26:10.649Z,7.53
2023-05-06T00:28:37.287Z,6.75
2023-05-06T00:31:04.189Z,6.57
2023-05-06T00:33:31.019Z,6.95
2023-05-06T00:35:57.617Z,7.03
2023-05-06T00:38:24.449Z,7.03
2023-05-06T00:40:51.032Z,7.50
2023-05-06T00:43:17.744Z,7.15
2023-05-06T00:45:44.671Z,7.57
2023-05-06T00:48:11.565Z,7.78
2023-05-06T00:50:40.403Z,7.20
2023-05-06T00:53:09.352Z,8.02
2023-05-06T00:55:36.531Z,6.90
2023-05-06T00:58:04.233Z,8.07
2023-05-06T01:00:30.903Z,8.00
2023-05-06T01:02:57.533Z,7.85
2023-05-06T01:05:29.900Z,8.07
2023-05-06T01:08:26.816Z,8.25
2023-05-06T01:11:07.996Z,7.38
2023-05-06T01:13:47.139Z,6.60
2023-05-06T01:16:16.890Z,8.07
2023-05-06T01:18:44.746Z,8.53
2023-05-06T01:21:13.549Z,8.23
2023-05-06T01:23:53.731Z,8.65
2023-05-06T01:26:20.779Z,8.75
2023-05-06T01:28:47.344Z,7.93
2023-05-06T01:31:35.510Z,7.93
2023-05-06T01:34:26.430Z,8.10
2023-05-06T01:37:04.352Z,7.60
2023-05-06T01:39:32.534Z,7.72
2023-05-06T01:42:02.073Z,8.23
2023-05-06T01:44:33.555Z,7.70
2023-05-06T01:47:01.322Z,6.90
2023-05-06T01:49:29.954Z,7.85
2023-05-06T01:51:56.609Z,7.28
2023-05-06T01:54:23.782Z,7.80
2023-05-06T01:56:50.449Z,7.32
2023-05-06T01:59:17.079Z,8.00
2023-05-06T02:01:43.812Z,8.50
2023-05-06T02:04:10.636Z,8.27
2023-05-06T02:06:37.433Z,7.90
2023-05-06T02:09:04.253Z,7.80
2023-05-06T02:11:30.811Z,7.75
2023-05-06T02:13:58.294Z,7.88
2023-05-06T02:16:28.660Z,8.15
2023-05-06T02:18:55.558Z,8.15
2023-05-06T02:21:23.256Z,8.13
2023-05-06T02:23:50.191Z,8.02
2023-05-06T02:26:16.906Z,8.30
2023-05-06T02:28:43.688Z,7.90
2023-05-06T02:31:14.735Z,8.60
2023-05-06T02:33:41.844Z,8.18
2023-05-06T02:36:08.693Z,8.90
2023-05-06T02:38:35.323Z,9.52
2023-05-06T02:41:01.971Z,9.90
2023-05-06T02:43:28.824Z,8.00
2023-05-06T02:45:55.625Z,8.25
2023-05-06T02:48:22.293Z,8.38
2023-05-06T02:50:50.673Z,7.95
2023-05-06T02:53:17.342Z,7.88
2023-05-06T02:55:43.945Z,8.27
2023-05-06T02:58:10.553Z,8.73
2023-05-06T03:00:37.134Z,8.43
2023-05-06T03:03:03.855Z,8.55
2023-05-06T03:05:30.621Z,9.85
2023-05-06T03:07:57.605Z,9.20
2023-05-06T03:10:24.639Z,9.13
2023-05-06T03:12:51.314Z,8.32
2023-05-06T03:15:18.413Z,9.43
2023-05-06T03:17:47.063Z,9.68
2023-05-06T03:20:14.081Z,9.18
2023-05-06T03:22:42.509Z,8.75
2023-05-06T03:25:09.596Z,8.52
2023-05-06T03:27:36.628Z,8.27
2023-05-06T03:30:03.864Z,8.48
2023-05-06T03:32:30.945Z,8.63
2023-05-06T03:34:57.929Z,9.30
2023-05-06T03:37:24.577Z,9.35
2023-05-06T03:39:51.204Z,8.77
2023-05-06T03:42:17.872Z,9.40
2023-05-06T03:44:44.473Z,9.35
2023-05-06T03:47:11.222Z,8.88
2023-05-06T03:49:37.991Z,7.78
2023-05-06T03:52:05.289Z,6.50
2023-05-06T03:54:31.977Z,6.53
2023-05-06T03:56:58.620Z,6.30
2023-05-06T03:59:25.645Z,6.03
2023-05-06T04:01:52.285Z,7.20
2023-05-06T04:04:19.025Z,6.55
2023-05-06T04:06:45.639Z,5.32
2023-05-06T04:09:12.205Z,5.82
2023-05-06T04:11:38.944Z,6.88
2023-05-06T04:14:05.644Z,6.50
2023-05-06T04:16:32.203Z,6.40
2023-05-06T04:18:58.904Z,7.07
2023-05-06T04:21:25.653Z,5.72
2023-05-06T04:23:52.330Z,6.00
2023-05-06T04:26:19.331Z,5.15
2023-05-06T04:28:45.912Z,5.85
2023-05-06T04:31:14.598Z,6.43
2023-05-06T04:33:41.651Z,5.60
2023-05-06T04:36:08.714Z,6.07
2023-05-06T04:38:37.444Z,6.50
2023-05-06T04:41:05.645Z,5.63
2023-05-06T04:43:32.871Z,5.07
2023-05-06T04:45:59.607Z,6.20
2023-05-06T04:48:26.525Z,5.45
2023-05-06T04:50:53.279Z,6.03
2023-05-06T04:53:19.866Z,5.35
2023-05-06T04:55:46.633Z,5.03
2023-05-06T04:58:13.240Z,5.45
2023-05-06T05:00:39.894Z,4.72
2023-05-06T05:03:06.672Z,4.18
2023-05-06T05:05:36.701Z,4.90
2023-05-06T05:08:03.428Z,5.85
2023-05-06T05:10:30.259Z,5.82
2023-05-06T05:12:57.029Z,5.97
2023-05-06T05:15:23.734Z,7.47
2023-05-06T05:17:51.111Z,8.20
2023-05-06T05:20:17.922Z,9.07
2023-05-06T05:22:44.522Z,10.23
2023-05-06T05:25:11.376Z,9.88
2023-05-06T05:27:38.381Z,9.38
2023-05-06T05:30:05.591Z,10.18
2023-05-06T05:32:32.207Z,10.23
2023-05-06T05:34:58.795Z,10.20
2023-05-06T05:37:25.357Z,9.18
2023-05-06T05:39:52.110Z,10.45
2023-05-06T05:42:18.759Z,10.23
2023-05-06T05:44:45.693Z,10.45
2023-05-06T05:47:12.814Z,11.13
2023-05-06T05:49:39.445Z,12.15
2023-05-06T05:52:07.269Z,11.23
2023-05-06T05:54:34.072Z,11.38
2023-05-06T05:57:01.021Z,11.95
2023-05-06T05:59:28.641Z,12.13
2023-05-06T06:01:55.434Z,12.95
2023-05-06T06:04:22.187Z,13.10
2023-05-06T06:06:48.859Z,12.65
2023-05-06T06:09:17.788Z,12.80
2023-05-06T06:11:44.610Z,10.85
2023-05-06T06:14:11.379Z,11.93
2023-05-06T06:16:38.397Z,11.95
2023-05-06T06:19:05.332Z,13.00
2023-05-06T06:21:31.995Z,13.40
2023-05-06T06:23:58.740Z,13.07
2023-05-06T06:26:25.398Z,13.07
2023-05-06T06:28:51.999Z,13.52
2023-05-06T06:31:18.740Z,13.90
2023-05-06T06:33:45.407Z,13.70
2023-05-06T06:36:12.048Z,12.52
2023-05-06T06:38:38.732Z,11.93
2023-05-06T06:41:05.411Z,13.63
2023-05-06T06:43:32.106Z,12.57
2023-05-06T06:45:59.430Z,13.52
2023-05-06T06:48:26.242Z,12.63
2023-05-06T06:50:53.011Z,13.38
2023-05-06T06:53:20.541Z,13.25
2023-05-06T06:55:47.266Z,12.68
2023-05-06T06:58:14.127Z,13.20
2023-05-06T07:00:40.815Z,13.20
2023-05-06T07:03:07.603Z,12.80
2023-05-06T07:05:34.228Z,13.73
2023-05-06T07:08:00.943Z,12.95
2023-05-06T07:10:27.631Z,13.05
2023-05-06T07:12:54.437Z,12.52
2023-05-06T07:15:21.279Z,12.77
2023-05-06T07:17:47.968Z,12.73
2023-05-06T07:20:14.576Z,12.57
2023-05-06T07:22:41.414Z,12.18
2023-05-06T07:25:08.728Z,11.90
2023-05-06T07:27:35.485Z,12.30
2023-05-06T07:30:02.372Z,12.18
2023-05-06T07:32:29.577Z,12.55
2023-05-06T07:34:56.192Z,12.27
2023-05-06T07:37:22.800Z,11.40
2023-05-06T07:39:49.490Z,12.23
2023-05-06T07:42:16.081Z,11.63
2023-05-06T07:44:42.662Z,10.68
2023-05-06T07:47:09.540Z,10.57
2023-05-06T07:49:36.400Z,10.07
2023-05-06T07:52:04.156Z,10.77
2023-05-06T07:54:31.884Z,11.13
2023-05-06T07:56:58.698Z,10.50
2023-05-06T07:59:25.515Z,10.10
2023-05-06T08:01:52.242Z,8.88
2023-05-06T08:04:18.883Z,9.25
2023-05-06T08:06:45.802Z,8.65
2023-05-06T08:09:17.020Z,8.57
2023-05-06T08:11:49.921Z,7.85
2023-05-06T08:14:16.512Z,7.20
2023-05-06T08:16:43.305Z,7.55
2023-05-06T08:19:10.028Z,7.30
2023-05-06T08:21:36.683Z,7.63
2023-05-06T08:24:03.607Z,7.60
2023-05-06T08:26:30.353Z,7.40
2023-05-06T08:28:57.794Z,6.78
2023-05-06T08:31:24.515Z,7.38
2023-05-06T08:33:53.897Z,7.47
2023-05-06T08:36:22.122Z,8.07
2023-05-06T08:38:50.594Z,6.68
2023-05-06T08:41:19.623Z,6.53
2023-05-06T08:43:49.084Z,5.97
2023-05-06T08:46:16.715Z,5.80
2023-05-06T08:48:43.795Z,6.63
2023-05-06T08:51:14.276Z,5.30
2023-05-06T08:53:46.585Z,5.15
2023-05-06T08:56:15.023Z,4.35
2023-05-06T08:58:45.588Z,4.78
2023-05-06T09:01:12.428Z,4.78
2023-05-06T09:03:39.236Z,4.38
2023-05-06T09:06:06.003Z,4.45
2023-05-06T09:08:32.784Z,4.40
2023-05-06T09:10:59.436Z,5.13
2023-05-06T09:13:26.085Z,6.43
2023-05-06T09:15:55.566Z,6.13
2023-05-06T09:18:22.726Z,6.40
2023-05-06T09:20:49.937Z,6.22
2023-05-06T09:23:17.972Z,5.82
2023-05-06T09:25:46.815Z,5.10
2023-05-06T09:28:13.956Z,6.30
2023-05-06T09:30:43.658Z,5.80
2023-05-06T09:33:12.015Z,5.65
2023-05-06T09:35:43.723Z,5.78
2023-05-06T09:38:10.803Z,6.88
2023-05-06T09:40:38.525Z,6.20
2023-05-06T09:43:06.119Z,6.25
2023-05-06T09:45:33.219Z,6.47
2023-05-06T09:48:01.128Z,6.35
2023-05-06T09:50:28.229Z,7.68
2023-05-06T09:52:55.838Z,7.25
2023-05-06T09:55:26.542Z,6.63
2023-05-06T09:57:54.620Z,7.22
2023-05-06T10:00:26.977Z,6.40
2023-05-06T10:02:54.645Z,6.63
2023-05-06T10:05:22.803Z,6.85
2023-05-06T10:07:52.391Z,6.35
2023-05-06T10:10:19.185Z,6.40
2023-05-06T10:12:46.243Z,6.82
2023-05-06T10:15:13.078Z,6.70
2023-05-06T10:17:45.265Z,6.80
2023-05-06T10:20:14.149Z,7.00
2023-05-06T10:23:01.590Z,6.65
2023-05-06T10:25:38.487Z,6.43
2023-05-06T10:28:13.408Z,6.70
2023-05-06T10:30:47.682Z,5.55
2023-05-06T10:33:16.113Z,6.15
2023-05-06T10:35:50.709Z,6.40
2023-05-06T10:38:26.776Z,6.68
2023-05-06T10:40:54.757Z,6.40
2023-05-06T10:43:27.583Z,6.45
2023-05-06T10:46:15.462Z,6.28
2023-05-06T10:49:11.341Z,6.18
2023-05-06T10:51:39.072Z,7.10
2023-05-06T10:54:20.669Z,7.50
2023-05-06T10:56:50.878Z,7.00
2023-05-06T10:59:29.991Z,7.25
2023-05-06T11:02:08.540Z,8.05
2023-05-06T11:04:35.317Z,7.43
2023-05-06T11:07:12.916Z,7.38
2023-05-06T11:09:56.278Z,6.55
2023-05-06T11:12:43.000Z,6.55
2023-05-06T11:15:26.635Z,7.07
2023-05-06T11:17:55.825Z,7.15
2023-05-06T11:20:25.604Z,7.53
2023-05-06T11:22:53.587Z,7.90
2023-05-06T11:25:40.581Z,7.07
2023-05-06T11:28:13.687Z,8.60
2023-05-06T11:30:53.609Z,7.72
2023-05-06T11:33:24.387Z,7.85
2023-05-06T11:35:51.011Z,8.18
2023-05-06T11:38:17.714Z,8.70
2023-05-06T11:40:44.562Z,9.77
2023-05-06T11:43:15.137Z,8.80
2023-05-06T11:45:46.983Z,9.30
2023-05-06T11:48:15.445Z,9.93
2023-05-06T11:50:49.925Z,10.40
2023-05-06T11:53:19.174Z,10.73
2023-05-06T11:55:47.473Z,10.70
2023-05-06T11:58:28.627Z,11.07
2023-05-06T12:01:01.127Z,11.85
2023-05-06T12:03:29.858Z,11.07
2023-05-06T12:05:57.053Z,11.82
2023-05-06T12:08:28.347Z,11.30
2023-05-06T12:10:59.138Z,11.10
2023-05-06T12:15:55.171Z,10.70
2023-05-06T12:18:23.453Z,10.45
2023-05-06T12:20:50.204Z,10.52
2023-05-06T12:23:16.870Z,10.93
2023-05-06T12:25:46.809Z,10.57
2023-05-06T12:28:17.896Z,12.00
2023-05-06T12:30:45.870Z,10.85
2023-05-06T12:33:13.373Z,9.15
2023-05-06T12:35:41.232Z,8.55
2023-05-06T12:38:13.072Z,6.55
2023-05-06T12:40:41.420Z,6.20
2023-05-06T12:43:09.008Z,7.65
2023-05-06T12:45:36.095Z,6.53
2023-05-06T12:48:04.016Z,6.00
2023-05-06T12:50:41.862Z,5.63
2023-05-06T12:53:11.009Z,5.90
2023-05-06T12:55:38.668Z,6.90
2023-05-06T12:58:16.494Z,7.70
2023-05-06T13:00:43.234Z,7.22
2023-05-06T13:03:11.565Z,6.97
2023-05-06T13:05:38.311Z,4.85
2023-05-06T13:08:06.004Z,4.38
2023-05-06T13:10:32.726Z,4.80
2023-05-06T13:12:59.475Z,4.93
2023-05-06T13:15:27.043Z,4.40
2023-05-06T13:17:53.855Z,5.38
2023-05-06T13:20:20.513Z,4.40
2023-05-06T13:22:53.830Z,4.40
2023-05-06T13:25:21.901Z,4.10
2023-05-06T13:27:48.690Z,4.43
2023-05-06T13:30:15.433Z,4.68
2023-05-06T13:32:42.196Z,4.95
2023-05-06T13:35:09.401Z,5.20
2023-05-06T13:37:36.163Z,4.97
2023-05-06T13:40:03.590Z,5.47
2023-05-06T13:42:30.299Z,5.55
2023-05-06T13:44:56.971Z,6.78
2023-05-06T13:47:24.251Z,6.28
2023-05-06T13:49:51.112Z,6.75
2023-05-06T13:52:17.708Z,6.80
2023-05-06T13:54:45.042Z,7.28
2023-05-06T13:57:11.625Z,7.60
2023-05-06T13:59:38.237Z,6.30
2023-05-06T14:02:08.789Z,6.22
2023-05-06T14:04:36.256Z,5.07
2023-05-06T14:07:03.004Z,5.28
2023-05-06T14:09:29.808Z,4.68
2023-05-06T14:11:56.385Z,4.10
2023-05-06T14:14:22.942Z,3.92
2023-05-06T14:16:51.745Z,3.58
2023-05-06T14:19:18.343Z,3.60
2023-05-06T14:21:44.906Z,3.40
2023-05-06T14:24:12.626Z,3.80
2023-05-06T14:26:40.401Z,4.03
2023-05-06T14:29:07.063Z,4.65
2023-05-06T14:31:34.605Z,4.80
2023-05-06T14:34:02.029Z,5.78
2023-05-06T14:36:28.967Z,6.15
2023-05-06T14:38:55.522Z,6.30
2023-05-06T14:41:22.075Z,5.72
2023-05-06T14:43:48.686Z,6.32
2023-05-06T14:46:16.613Z,6.30
2023-05-06T14:48:43.698Z,5.68
2023-05-06T14:51:10.383Z,6.53
2023-05-06T14:53:37.164Z,6.63
2023-05-06T14:56:03.927Z,6.15
2023-05-06T14:58:30.544Z,6.03
2023-05-06T15:24:15.863Z,3.53
2023-05-06T15:26:42.612Z,3.95
2023-05-06T15:29:09.280Z,4.20
2023-05-06T15:31:39.297Z,4.60
2023-05-06T15:34:09.778Z,5.47
2023-05-06T15:36:36.877Z,5.55
2023-05-06T15:39:03.986Z,5.35
2023-05-06T15:41:34.816Z,5.22
2023-05-06T15:44:03.134Z,4.63
2023-05-06T15:46:31.626Z,4.68
2023-05-06T15:49:21.061Z,5.30
2023-05-06T15:51:45.043Z,7.28
2023-05-06T15:54:11.690Z,7.88
2023-05-06T15:56:40.919Z,8.02
2023-05-06T15:59:08.646Z,8.20
2023-05-06T16:01:50.682Z,7.50
2023-05-06T16:04:22.945Z,7.28
2023-05-06T16:06:50.122Z,7.40
2023-05-06T16:09:16.781Z,8.00
2023-05-06T16:11:43.547Z,7.82
2023-05-06T16:14:10.137Z,8.10
2023-05-06T16:16:36.792Z,8.52
2023-05-06T16:19:04.007Z,9.05
2023-05-06T16:21:30.747Z,8.30
2023-05-06T16:23:57.613Z,8.57
2023-05-06T16:26:24.703Z,9.10
2023-05-06T16:28:51.554Z,9.35
2023-05-06T16:31:18.511Z,8.25
2023-05-06T16:33:45.554Z,9.13
2023-05-06T16:36:12.623Z,9.05
2023-05-06T16:38:39.253Z,8.75
2023-05-06T16:41:06.055Z,8.98
2023-05-06T16:43:32.708Z,9.18
2023-05-06T16:45:59.294Z,8.95
2023-05-06T16:48:26.308Z,8.55
2023-05-06T16:50:53.016Z,9.27
2023-05-06T16:53:19.788Z,15.85
2023-05-06T16:55:48.827Z,10.80
2023-05-06T16:58:16.053Z,10.13
2023-05-06T17:00:42.859Z,8.93
2023-05-06T17:03:09.880Z,8.38
2023-05-06T17:05:36.851Z,12.65
2023-05-06T17:08:04.025Z,9.63
2023-05-06T17:10:30.949Z,8.57
2023-05-06T17:12:58.231Z,7.47
2023-05-06T17:15:25.735Z,6.78
2023-05-06T17:17:52.834Z,7.10
2023-05-06T17:20:23.017Z,6.90
2023-05-06T17:22:49.733Z,10.18
2023-05-06T17:25:16.887Z,6.82
2023-05-06T17:27:44.391Z,20.48
2023-05-06T17:30:12.087Z,10.98
2023-05-06T17:32:39.256Z,12.40
2023-05-06T17:35:06.712Z,7.18
2023-05-06T17:37:34.394Z,9.10
2023-05-06T17:40:02.047Z,10.55
2023-05-06T17:42:29.603Z,7.50
2023-05-06T17:44:56.279Z,7.43
2023-05-06T17:47:23.095Z,7.63
2023-05-06T17:49:53.281Z,7.20
2023-05-06T17:52:20.801Z,7.03
2023-05-06T17:55:05.851Z,8.07
2023-05-06T17:57:37.702Z,8.35
2023-05-06T18:00:05.464Z,8.15
2023-05-06T18:02:32.138Z,8.48
2023-05-06T18:04:59.136Z,8.10
2023-05-06T18:07:25.961Z,7.20
2023-05-06T18:09:53.255Z,8.23
2023-05-06T18:12:20.061Z,8.50
2023-05-06T18:14:47.914Z,8.60
2023-05-06T18:17:14.532Z,8.43
2023-05-06T18:19:41.108Z,8.02
2023-05-06T18:22:08.067Z,8.63
2023-05-06T18:24:34.782Z,8.45
2023-05-06T18:27:02.343Z,7.93
2023-05-06T18:29:30.392Z,7.47
2023-05-06T18:31:57.639Z,8.02
2023-05-06T18:34:24.352Z,8.23
2023-05-06T18:36:51.337Z,7.80
2023-05-06T18:39:18.146Z,8.52
2023-05-06T18:41:44.812Z,8.07
2023-05-06T18:44:11.874Z,8.32
2023-05-06T18:46:38.560Z,8.82
2023-05-06T18:49:05.896Z,8.55
2023-05-06T18:51:32.653Z,8.20
2023-05-06T18:53:59.317Z,8.88
2023-05-06T18:56:25.961Z,8.88
2023-05-06T18:58:52.952Z,9.02
2023-05-06T19:01:19.540Z,8.10
2023-05-06T19:03:46.903Z,8.82
2023-05-06T19:06:13.917Z,8.48
2023-05-06T19:08:40.821Z,8.55
2023-05-06T19:11:14.419Z,8.57
2023-05-06T19:13:42.841Z,9.18
2023-05-06T19:16:09.642Z,8.40
2023-05-06T19:18:36.666Z,8.85
2023-05-06T19:21:03.372Z,8.48
2023-05-06T19:23:30.412Z,9.05
2023-05-06T19:25:57.327Z,8.68
2023-05-06T19:28:24.874Z,9.23
2023-05-06T19:30:51.546Z,9.13
2023-05-06T19:33:18.612Z,9.38
2023-05-06T19:35:45.461Z,9.43
2023-05-06T19:38:12.129Z,10.25
2023-05-06T19:40:38.841Z,9.45
2023-05-06T19:43:05.583Z,9.57
2023-05-06T19:45:33.313Z,9.65
2023-05-06T19:48:01.041Z,10.27
2023-05-06T19:50:28.487Z,10.27
2023-05-06T19:52:55.268Z,10.63
2023-05-06T19:55:22.356Z,10.10
2023-05-06T19:57:49.902Z,11.60
2023-05-06T20:00:19.951Z,10.25
2023-05-06T20:02:46.843Z,11.05
2023-05-06T20:05:13.680Z,10.45
2023-05-06T20:07:41.298Z,10.43
2023-05-06T20:10:10.069Z,10.82
2023-05-06T20:12:36.901Z,10.95
2023-05-06T20:15:03.949Z,10.65
2023-05-06T20:17:31.305Z,10.30
2023-05-06T20:19:58.602Z,11.23
2023-05-06T20:22:26.071Z,10.35
2023-05-06T20:24:53.255Z,10.40
2023-05-06T20:27:23.438Z,10.30
2023-05-06T20:29:51.671Z,10.75
2023-05-06T20:32:18.792Z,11.05
2023-05-06T20:34:45.365Z,10.93
2023-05-06T20:37:12.028Z,10.45
2023-05-06T20:39:38.734Z,10.27
2023-05-06T20:42:05.516Z,10.57
2023-05-06T20:44:32.127Z,9.82
2023-05-06T20:46:58.739Z,10.88
2023-05-06T20:49:26.299Z,9.98
2023-05-06T20:51:53.121Z,9.98
2023-05-06T20:54:19.745Z,9.77
2023-05-06T20:56:46.485Z,9.77
2023-05-06T20:59:13.130Z,10.20
2023-05-06T21:01:39.882Z,10.73
2023-05-06T21:04:06.662Z,10.02
2023-05-06T21:06:33.420Z,9.88
2023-05-06T21:09:00.138Z,10.00
2023-05-06T21:11:28.902Z,9.95
2023-05-06T21:13:55.727Z,10.65
2023-05-06T21:16:22.697Z,10.25
2023-05-06T21:18:49.533Z,10.18
2023-05-06T21:21:16.245Z,10.93
2023-05-06T21:23:43.214Z,10.10
2023-05-06T21:26:11.592Z,9.60
2023-05-06T21:28:38.405Z,10.32
2023-05-06T21:31:05.190Z,10.20
2023-05-06T21:33:32.182Z,10.30
2023-05-06T21:35:58.784Z,10.00
2023-05-06T21:38:27.866Z,10.38
2023-05-06T21:40:55.771Z,11.07
2023-05-06T21:43:22.719Z,10.02
2023-05-06T21:45:49.691Z,10.27
2023-05-06T21:48:16.764Z,10.20
2023-05-06T21:50:43.483Z,10.85
2023-05-06T21:53:10.406Z,9.82
2023-05-06T21:55:37.201Z,10.68
2023-05-06T21:58:04.195Z,10.15
2023-05-06T22:00:31.290Z,11.60
2023-05-06T22:02:58.640Z,11.23
2023-05-06T22:05:25.444Z,11.30
2023-05-06T22:07:52.224Z,10.88
2023-05-06T22:10:18.942Z,11.40
2023-05-06T22:12:45.856Z,11.50
2023-05-06T22:15:14.811Z,12.48
2023-05-06T22:17:41.723Z,12.25
2023-05-06T22:20:11.411Z,11.73
2023-05-06T22:22:38.444Z,12.17
2023-05-06T22:25:05.852Z,12.23
2023-05-06T22:27:33.013Z,12.55
2023-05-06T22:29:59.912Z,12.45
2023-05-06T22:32:26.720Z,12.55
2023-05-06T22:34:53.514Z,13.25
2023-05-06T22:37:20.230Z,14.10
2023-05-06T22:39:47.631Z,13.60
2023-05-06T22:42:14.266Z,13.60
2023-05-06T22:44:41.214Z,14.35
2023-05-06T22:47:07.900Z,13.43
2023-05-06T22:49:36.394Z,13.93
2023-05-06T22:52:03.408Z,15.73
2023-05-06T22:54:30.197Z,15.15
2023-05-06T22:56:56.820Z,14.88
2023-05-06T22:59:23.481Z,14.77
2023-05-06T23:01:50.211Z,13.88
2023-05-06T23:04:16.923Z,15.00
2023-05-06T23:06:44.555Z,14.98
2023-05-06T23:09:12.446Z,13.85
2023-05-06T23:11:40.017Z,14.77
2023-05-06T23:14:06.758Z,15.52
2023-05-06T23:16:33.961Z,14.80
2023-05-06T23:19:00.597Z,15.05
2023-05-06T23:21:27.685Z,14.18
2023-05-06T23:23:54.304Z,14.50
2023-05-06T23:26:21.244Z,15.02
2023-05-06T23:28:48.066Z,15.00
2023-05-06T23:31:15.260Z,15.32
2023-05-06T23:33:41.965Z,15.27
2023-05-06T23:36:08.702Z,14.93
2023-05-06T23:38:35.726Z,13.90
2023-05-06T23:41:02.337Z,15.38
2023-05-06T23:43:29.101Z,15.52
2023-05-06T23:45:55.755Z,14.48
2023-05-06T23:48:22.356Z,14.57
2023-05-06T23:50:48.900Z,14.52
2023-05-06T23:53:15.614Z,15.05
2023-05-06T23:55:42.909Z,15.13
2023-05-06T23:58:09.778Z,14.85
